createdAt,value
2023-01-22T00:01:32.236Z,4.17
2023-01-22T00:04:00.842Z,3.80
2023-01-22T00:06:29.363Z,3.77
2023-01-22T00:08:57.790Z,3.73
2023-01-22T00:11:26.308Z,3.80
2023-01-22T00:13:54.703Z,3.77
2023-01-22T00:16:24.499Z,3.90
2023-01-22T00:18:52.966Z,4.30
2023-01-22T00:21:21.345Z,4.20
2023-01-22T00:23:49.740Z,4.30
2023-01-22T00:26:20.880Z,3.70
2023-01-22T00:28:49.296Z,4.10
2023-01-22T00:31:18.262Z,3.63
2023-01-22T00:33:48.910Z,3.87
2023-01-22T00:36:18.396Z,3.50
2023-01-22T00:38:47.047Z,2.90
2023-01-22T00:41:15.786Z,2.87
2023-01-22T00:43:44.291Z,3.03
2023-01-22T00:46:13.764Z,2.90
2023-01-22T00:48:42.490Z,2.47
2023-01-22T00:51:13.194Z,2.20
2023-01-22T00:53:43.616Z,3.00
2023-01-22T00:56:12.967Z,2.87
2023-01-22T00:58:41.590Z,2.53
2023-01-22T01:01:10.226Z,2.30
2023-01-22T01:03:38.992Z,2.40
2023-01-22T01:06:08.421Z,2.80
2023-01-22T01:08:40.206Z,2.70
2023-01-22T01:11:09.778Z,3.00
2023-01-22T01:13:40.591Z,2.50
2023-01-22T01:16:10.982Z,2.90
2023-01-22T01:18:39.551Z,2.63
2023-01-22T01:21:08.319Z,2.77
2023-01-22T01:23:38.336Z,2.60
2023-01-22T01:26:07.503Z,2.50
2023-01-22T01:28:37.511Z,2.50
2023-01-22T01:31:06.610Z,2.53
2023-01-22T01:33:35.094Z,2.53
2023-01-22T01:36:03.979Z,2.60
2023-01-22T01:38:32.812Z,2.80
2023-01-22T01:41:03.672Z,3.10
2023-01-22T01:43:32.067Z,2.97
2023-01-22T01:46:01.743Z,2.70
2023-01-22T01:48:33.250Z,3.10
2023-01-22T01:51:04.487Z,3.13
2023-01-22T01:53:33.103Z,3.83
2023-01-22T01:56:03.792Z,4.23
2023-01-22T01:58:34.233Z,3.50
2023-01-22T02:01:04.390Z,4.10
2023-01-22T02:03:33.020Z,4.23
2023-01-22T02:06:01.468Z,4.80
2023-01-22T02:08:30.051Z,4.20
2023-01-22T02:10:58.792Z,3.60
2023-01-22T02:13:30.828Z,3.53
2023-01-22T02:15:59.313Z,3.37
2023-01-22T02:18:27.755Z,2.63
2023-01-22T02:20:58.800Z,2.70
2023-01-22T02:23:27.809Z,2.90
2023-01-22T02:25:56.791Z,2.53
2023-01-22T02:28:25.212Z,2.80
2023-01-22T02:30:53.689Z,2.83
2023-01-22T02:33:22.178Z,3.00
2023-01-22T02:35:50.601Z,3.20
2023-01-22T02:38:20.471Z,3.17
2023-01-22T02:40:50.072Z,3.80
2023-01-22T02:43:18.592Z,3.67
2023-01-22T02:45:47.066Z,3.43
2023-01-22T02:48:16.052Z,3.20
2023-01-22T02:50:45.181Z,2.30
2023-01-22T02:53:13.896Z,2.63
2023-01-22T02:55:45.096Z,2.50
2023-01-22T02:58:14.549Z,2.27
2023-01-22T03:00:42.943Z,2.33
2023-01-22T03:03:15.612Z,2.20
2023-01-22T03:05:49.802Z,2.23
2023-01-22T03:08:18.256Z,2.37
2023-01-22T03:10:48.328Z,1.97
2023-01-22T03:13:34.325Z,2.50
2023-01-22T03:16:22.891Z,2.20
2023-01-22T03:19:08.853Z,1.90
2023-01-22T03:21:43.899Z,2.07
2023-01-22T03:24:12.314Z,1.93
2023-01-22T03:26:42.100Z,1.80
2023-01-22T03:29:10.478Z,2.00
2023-01-22T03:31:39.042Z,2.00
2023-01-22T03:34:07.550Z,2.13
2023-01-22T03:36:36.015Z,2.13
2023-01-22T03:39:04.456Z,1.83
2023-01-22T03:41:32.878Z,2.07
2023-01-22T03:44:03.621Z,2.10
2023-01-22T03:46:32.375Z,2.10
2023-01-22T03:49:00.768Z,2.30
2023-01-22T03:51:29.273Z,2.23
2023-01-22T03:53:57.683Z,2.10
2023-01-22T03:56:26.115Z,2.40
2023-01-22T03:58:54.690Z,2.73
2023-01-22T04:01:25.909Z,2.77
2023-01-22T04:03:54.751Z,2.63
2023-01-22T04:06:23.809Z,2.07
2023-01-22T04:08:54.566Z,1.90
2023-01-22T04:11:23.391Z,2.00
2023-01-22T04:13:51.949Z,2.00
2023-01-22T04:16:20.413Z,2.27
2023-01-22T04:18:50.208Z,2.00
2023-01-22T04:21:18.698Z,1.87
2023-01-22T04:23:47.103Z,2.50
2023-01-22T04:26:15.543Z,2.50
2023-01-22T04:28:43.954Z,2.50
2023-01-22T04:31:12.726Z,2.30
2023-01-22T04:33:41.178Z,2.10
2023-01-22T04:36:11.744Z,2.60
2023-01-22T04:38:40.203Z,2.33
2023-01-22T04:41:08.586Z,2.27
2023-01-22T04:43:37.082Z,2.80
2023-01-22T04:46:05.545Z,2.93
2023-01-22T04:48:33.950Z,2.10
2023-01-22T04:51:02.356Z,2.10
2023-01-22T04:53:32.199Z,2.20
2023-01-22T04:56:00.636Z,2.30
2023-01-22T04:58:29.182Z,2.20
2023-01-22T05:00:57.706Z,2.27
2023-01-22T05:03:26.274Z,1.70
2023-01-22T05:05:54.679Z,2.03
2023-01-22T05:08:23.136Z,2.27
2023-01-22T05:10:52.930Z,1.83
2023-01-22T05:13:21.359Z,2.27
2023-01-22T05:15:49.753Z,2.67
2023-01-22T05:18:18.144Z,2.50
2023-01-22T05:20:46.609Z,2.03
2023-01-22T05:23:15.056Z,2.80
2023-01-22T05:25:48.871Z,2.57
2023-01-22T05:28:18.649Z,2.30
2023-01-22T05:30:47.145Z,2.67
2023-01-22T05:33:15.629Z,2.17
2023-01-22T05:35:44.039Z,2.40
2023-01-22T05:38:12.410Z,2.20
2023-01-22T05:40:40.781Z,2.53
2023-01-22T05:43:09.165Z,2.60
2023-01-22T05:45:38.967Z,2.30
2023-01-22T05:48:07.638Z,1.77
2023-01-22T05:50:36.679Z,2.50
2023-01-22T05:53:05.104Z,2.33
2023-01-22T05:55:34.120Z,2.50
2023-01-22T05:58:02.669Z,2.10
2023-01-22T06:00:31.836Z,2.40
2023-01-22T06:03:02.231Z,1.93
2023-01-22T06:05:30.695Z,2.40
2023-01-22T06:07:59.129Z,2.30
2023-01-22T06:10:27.591Z,2.87
2023-01-22T06:12:55.960Z,2.60
2023-01-22T06:15:24.380Z,2.00
2023-01-22T06:17:52.824Z,2.67
2023-01-22T06:20:22.688Z,2.60
2023-01-22T06:22:52.858Z,2.30
2023-01-22T06:25:21.266Z,2.50
2023-01-22T06:27:49.650Z,2.70
2023-01-22T06:30:18.731Z,2.50
2023-01-22T06:32:47.192Z,2.40
2023-01-22T06:35:15.595Z,2.83
2023-01-22T06:37:45.321Z,3.10
2023-01-22T06:40:14.049Z,3.27
2023-01-22T06:42:42.484Z,3.30
2023-01-22T06:45:11.195Z,2.77
2023-01-22T06:47:39.633Z,2.87
2023-01-22T06:50:08.259Z,2.20
2023-01-22T06:52:36.680Z,2.33
2023-01-22T06:55:06.964Z,2.23
2023-01-22T06:57:35.432Z,2.60
2023-01-22T07:00:04.794Z,2.30
2023-01-22T07:02:33.318Z,2.40
2023-01-22T07:05:01.737Z,2.50
2023-01-22T07:07:30.149Z,2.10
2023-01-22T07:09:58.589Z,2.20
2023-01-22T07:12:28.408Z,2.13
2023-01-22T07:14:56.868Z,2.50
2023-01-22T07:17:26.565Z,2.73
2023-01-22T07:19:55.017Z,3.03
2023-01-22T07:22:23.418Z,2.60
2023-01-22T07:24:52.246Z,2.20
2023-01-22T07:27:20.696Z,2.60
2023-01-22T07:29:51.055Z,2.27
2023-01-22T07:32:19.511Z,2.00
2023-01-22T07:34:47.950Z,2.07
2023-01-22T07:37:16.389Z,2.37
2023-01-22T07:39:44.819Z,2.27
2023-01-22T07:42:13.911Z,2.17
2023-01-22T07:44:42.386Z,2.73
2023-01-22T07:47:12.172Z,2.60
2023-01-22T07:49:40.607Z,2.47
2023-01-22T07:52:09.058Z,2.47
2023-01-22T07:54:37.474Z,2.30
2023-01-22T07:57:06.131Z,2.40
2023-01-22T07:59:34.541Z,2.37
2023-01-22T08:02:03.715Z,2.33
2023-01-22T08:04:33.637Z,36.17
2023-01-22T08:07:02.081Z,5.23
2023-01-22T08:09:30.499Z,2.90
2023-01-22T08:11:59.041Z,2.50
2023-01-22T08:14:27.439Z,2.40
2023-01-22T08:16:55.885Z,2.27
2023-01-22T08:19:24.301Z,2.93
2023-01-22T08:21:54.123Z,2.27
2023-01-22T08:24:22.525Z,2.30
2023-01-22T08:26:51.001Z,2.83
2023-01-22T08:29:19.362Z,2.50
2023-01-22T08:31:47.816Z,2.13
2023-01-22T08:34:16.297Z,2.70
2023-01-22T08:36:44.683Z,2.50
2023-01-22T08:39:14.555Z,2.27
2023-01-22T08:41:43.174Z,2.50
2023-01-22T08:44:14.198Z,2.53
2023-01-22T08:46:42.607Z,3.20
2023-01-22T08:49:11.019Z,2.93
2023-01-22T08:51:39.415Z,3.23
2023-01-22T08:54:07.934Z,8.33
2023-01-22T08:56:37.774Z,3.23
2023-01-22T08:59:06.628Z,2.97
2023-01-22T09:01:35.736Z,3.27
2023-01-22T09:04:04.208Z,2.83
2023-01-22T09:06:32.654Z,2.97
2023-01-22T09:09:01.795Z,3.17
2023-01-22T09:11:30.407Z,3.30
2023-01-22T09:14:00.548Z,3.23
2023-01-22T09:16:29.665Z,3.30
2023-01-22T09:18:58.097Z,3.30
2023-01-22T09:21:26.505Z,3.37
2023-01-22T09:23:54.971Z,3.13
2023-01-22T09:26:23.399Z,2.50
2023-01-22T09:28:51.799Z,2.87
2023-01-22T09:31:21.699Z,2.50
2023-01-22T09:33:51.254Z,3.00
2023-01-22T09:36:19.649Z,2.90
2023-01-22T09:38:48.169Z,2.87
2023-01-22T09:41:21.190Z,2.63
2023-01-22T09:43:51.628Z,2.27
2023-01-22T09:46:24.184Z,3.17
2023-01-22T09:48:55.452Z,2.63
2023-01-22T09:51:23.984Z,12.70
2023-01-22T09:53:54.808Z,4.73
2023-01-22T09:56:24.099Z,3.20
2023-01-22T09:58:53.703Z,3.23
2023-01-22T10:01:23.964Z,3.30
2023-01-22T10:03:54.436Z,2.60
2023-01-22T10:06:24.658Z,2.83
2023-01-22T10:08:56.896Z,2.77
2023-01-22T10:11:25.301Z,2.70
2023-01-22T10:13:56.358Z,2.80
2023-01-22T10:16:26.476Z,2.77
2023-01-22T10:18:56.984Z,3.67
2023-01-22T10:21:28.102Z,2.83
2023-01-22T10:23:58.138Z,2.80
2023-01-22T10:26:30.912Z,3.63
2023-01-22T10:29:00.650Z,7.23
2023-01-22T10:31:31.461Z,9.23
2023-01-22T10:34:00.639Z,6.20
2023-01-22T10:36:29.614Z,4.90
2023-01-22T10:39:05.134Z,31.67
2023-01-22T10:41:33.697Z,34.23
2023-01-22T10:44:25.930Z,9.07
2023-01-22T10:46:56.336Z,4.30
2023-01-22T10:49:25.298Z,4.10
2023-01-22T10:51:55.940Z,4.60
2023-01-22T10:54:27.082Z,4.43
2023-01-22T10:57:05.093Z,4.27
2023-01-22T10:59:33.614Z,3.27
2023-01-22T11:02:04.274Z,2.80
2023-01-22T11:04:33.403Z,3.17
2023-01-22T11:07:04.164Z,2.93
2023-01-22T11:09:35.398Z,3.00
2023-01-22T11:12:09.611Z,3.33
2023-01-22T11:14:38.868Z,2.70
2023-01-22T11:17:13.542Z,3.23
2023-01-22T11:19:44.643Z,2.90
2023-01-22T11:22:18.827Z,3.07
2023-01-22T11:24:48.551Z,4.00
2023-01-22T11:27:34.744Z,3.37
2023-01-22T11:30:21.151Z,4.03
2023-01-22T11:32:58.356Z,2.90
2023-01-22T11:35:29.691Z,2.50
2023-01-22T11:38:02.335Z,2.83
2023-01-22T11:40:31.808Z,2.77
2023-01-22T11:43:10.249Z,3.10
2023-01-22T11:45:50.549Z,3.00
2023-01-22T11:48:26.524Z,2.80
2023-01-22T11:51:01.127Z,2.70
2023-01-22T11:53:40.001Z,2.27
2023-01-22T11:56:15.839Z,2.90
2023-01-22T11:58:47.811Z,2.80
2023-01-22T12:01:20.709Z,2.70
2023-01-22T12:04:09.880Z,2.57
2023-01-22T12:06:46.702Z,2.40
2023-01-22T12:09:19.574Z,2.70
2023-01-22T12:11:55.969Z,2.40
2023-01-22T12:14:43.041Z,2.60
2023-01-22T12:17:15.501Z,4.93
2023-01-22T12:19:50.644Z,2.60
2023-01-22T12:22:27.051Z,2.40
2023-01-22T12:24:59.695Z,2.50
2023-01-22T12:27:30.908Z,6.47
2023-01-22T12:30:02.024Z,3.77
2023-01-22T12:32:31.847Z,2.73
2023-01-22T12:35:02.402Z,6.20
2023-01-22T12:37:37.027Z,3.60
2023-01-22T12:40:12.147Z,3.40
2023-01-22T12:42:43.637Z,2.60
2023-01-22T12:45:19.348Z,2.77
2023-01-22T12:47:52.655Z,2.50
2023-01-22T12:50:22.573Z,2.43
2023-01-22T12:53:00.991Z,2.30
2023-01-22T12:55:34.884Z,2.40
2023-01-22T12:58:03.894Z,2.00
2023-01-22T13:00:35.314Z,2.43
2023-01-22T13:03:05.020Z,2.50
2023-01-22T13:05:40.982Z,8.20
2023-01-22T13:08:24.957Z,5.83
2023-01-22T13:10:55.215Z,4.13
2023-01-22T13:13:28.551Z,2.87
2023-01-22T13:15:58.016Z,1.97
2023-01-22T13:18:27.553Z,2.30
2023-01-22T13:20:58.785Z,4.00
2023-01-22T13:23:29.028Z,2.70
2023-01-22T13:25:58.486Z,2.50
2023-01-22T13:28:27.478Z,2.77
2023-01-22T13:30:59.900Z,2.90
2023-01-22T13:33:28.692Z,3.47
2023-01-22T13:35:57.635Z,2.60
2023-01-22T13:38:26.951Z,2.70
2023-01-22T13:41:00.795Z,3.23
2023-01-22T13:43:29.482Z,2.50
2023-01-22T13:45:58.774Z,3.60
2023-01-22T13:48:27.870Z,3.13
2023-01-22T13:50:57.865Z,3.33
2023-01-22T13:53:28.032Z,2.77
2023-01-22T13:55:56.813Z,3.17
2023-01-22T13:58:46.712Z,4.77
2023-01-22T14:01:27.781Z,3.73
2023-01-22T14:04:00.963Z,2.60
2023-01-22T14:06:29.986Z,2.20
2023-01-22T14:08:59.512Z,2.07
2023-01-22T14:11:38.526Z,2.40
2023-01-22T14:14:16.074Z,3.30
2023-01-22T14:16:44.497Z,2.37
2023-01-22T14:19:13.062Z,2.10
2023-01-22T14:21:41.885Z,2.00
2023-01-22T14:24:10.493Z,2.50
2023-01-22T14:26:39.002Z,2.50
2023-01-22T14:29:08.961Z,2.83
2023-01-22T14:31:37.465Z,2.23
2023-01-22T14:34:05.960Z,2.40
2023-01-22T14:36:34.382Z,2.33
2023-01-22T14:39:03.217Z,2.50
2023-01-22T14:41:32.344Z,2.37
2023-01-22T14:44:00.756Z,2.80
2023-01-22T14:46:30.547Z,3.20
2023-01-22T14:49:01.852Z,3.43
2023-01-22T14:51:30.327Z,4.20
2023-01-22T14:53:59.200Z,3.60
2023-01-22T14:56:27.616Z,3.00
2023-01-22T14:58:56.018Z,3.00
2023-01-22T15:01:24.908Z,3.67
2023-01-22T15:03:54.772Z,4.80
2023-01-22T15:06:23.159Z,4.23
2023-01-22T15:08:51.560Z,4.87
2023-01-22T15:11:20.002Z,4.77
2023-01-22T15:13:49.276Z,9.83
2023-01-22T15:16:17.767Z,7.37
2023-01-22T15:18:46.287Z,6.00
2023-01-22T15:21:16.123Z,6.47
2023-01-22T15:23:44.521Z,6.20
2023-01-22T15:26:23.963Z,5.73
2023-01-22T15:28:52.436Z,7.23
2023-01-22T15:31:20.842Z,6.40
2023-01-22T15:33:49.269Z,6.33
2023-01-22T15:36:19.108Z,5.20
2023-01-22T15:38:47.504Z,4.63
2023-01-22T15:41:20.752Z,3.70
2023-01-22T15:43:50.981Z,3.57
2023-01-22T15:46:19.911Z,3.70
2023-01-22T15:48:48.363Z,3.23
2023-01-22T15:51:17.182Z,2.93
2023-01-22T15:53:51.069Z,3.27
2023-01-22T15:56:19.668Z,3.40
2023-01-22T15:58:48.795Z,3.50
2023-01-22T16:01:17.275Z,3.67
2023-01-22T16:03:45.688Z,4.73
2023-01-22T16:06:15.425Z,5.77
2023-01-22T16:08:44.363Z,7.93
2023-01-22T16:11:14.368Z,9.77
2023-01-22T16:13:43.122Z,11.33
2023-01-22T16:16:15.715Z,13.80
2023-01-22T16:18:44.199Z,14.03
2023-01-22T16:21:12.998Z,14.03
2023-01-22T16:23:43.104Z,15.37
2023-01-22T16:26:13.370Z,12.93
2023-01-22T16:28:43.225Z,13.03
2023-01-22T16:31:12.872Z,13.53
2023-01-22T16:33:43.332Z,13.67
2023-01-22T16:36:13.945Z,13.50
2023-01-22T16:38:42.633Z,13.33
2023-01-22T16:41:24.752Z,15.33
2023-01-22T16:43:55.995Z,16.30
2023-01-22T16:46:25.407Z,17.00
2023-01-22T16:48:57.426Z,17.27
2023-01-22T16:51:26.955Z,19.20
2023-01-22T16:53:55.869Z,22.80
2023-01-22T16:56:24.504Z,21.40
2023-01-22T16:58:52.871Z,18.10
2023-01-22T17:01:22.839Z,16.70
2023-01-22T17:03:51.276Z,15.43
2023-01-22T17:06:24.318Z,16.13
2023-01-22T17:08:53.531Z,15.87
2023-01-22T17:11:21.933Z,16.50
2023-01-22T17:13:50.585Z,18.47
2023-01-22T17:16:19.721Z,17.47
2023-01-22T17:18:49.740Z,15.93
2023-01-22T17:21:19.509Z,15.43
2023-01-22T17:23:47.974Z,13.97
2023-01-22T17:26:17.216Z,13.83
2023-01-22T17:28:46.009Z,13.80
2023-01-22T17:31:15.526Z,12.60
2023-01-22T17:33:44.469Z,14.60
2023-01-22T17:36:15.072Z,11.13
2023-01-22T17:38:43.964Z,11.43
2023-01-22T17:41:14.251Z,11.67
2023-01-22T17:43:43.735Z,15.93
2023-01-22T17:46:13.050Z,18.87
2023-01-22T17:48:41.600Z,20.23
2023-01-22T17:51:10.905Z,21.00
2023-01-22T17:53:41.629Z,21.80
2023-01-22T17:56:10.827Z,22.57
2023-01-22T17:58:39.245Z,24.67
2023-01-22T18:01:08.952Z,24.40
2023-01-22T18:03:37.783Z,15.87
2023-01-22T18:06:06.325Z,12.13
2023-01-22T18:08:35.726Z,11.90
2023-01-22T18:11:08.927Z,13.07
2023-01-22T18:13:38.117Z,10.33
2023-01-22T18:16:07.135Z,8.73
2023-01-22T18:18:35.596Z,8.10
2023-01-22T18:21:04.089Z,7.03
2023-01-22T18:23:32.540Z,7.10
2023-01-22T18:26:04.680Z,8.00
2023-01-22T18:28:35.088Z,8.10
2023-01-22T18:31:07.605Z,6.90
2023-01-22T18:33:37.275Z,6.73
2023-01-22T18:36:07.045Z,5.80
2023-01-22T18:38:36.793Z,5.40
2023-01-22T18:41:10.454Z,6.03
2023-01-22T18:43:41.156Z,6.50
2023-01-22T18:46:10.711Z,6.03
2023-01-22T18:48:39.611Z,5.90
2023-01-22T18:51:10.671Z,5.07
2023-01-22T18:53:40.346Z,4.37
2023-01-22T18:56:09.261Z,3.93
2023-01-22T18:58:38.625Z,4.97
2023-01-22T19:01:13.654Z,5.43
2023-01-22T19:03:42.746Z,5.93
2023-01-22T19:06:14.388Z,6.63
2023-01-22T19:08:43.427Z,7.53
2023-01-22T19:11:12.346Z,6.97
2023-01-22T19:13:40.854Z,7.23
2023-01-22T19:16:10.952Z,7.80
2023-01-22T19:18:42.379Z,7.30
2023-01-22T19:21:12.557Z,15.47
2023-01-22T19:23:41.166Z,13.03
2023-01-22T19:26:10.828Z,8.67
2023-01-22T19:28:39.587Z,6.97
2023-01-22T19:31:15.567Z,8.97
2023-01-22T19:33:45.455Z,10.23
2023-01-22T19:36:13.869Z,10.90
2023-01-22T19:38:42.356Z,9.37
2023-01-22T19:41:10.916Z,8.10
2023-01-22T19:43:39.679Z,7.67
2023-01-22T19:46:08.937Z,7.87
2023-01-22T19:48:37.675Z,8.23
2023-01-22T19:51:08.520Z,8.43
2023-01-22T19:53:37.322Z,8.40
2023-01-22T19:56:05.897Z,9.60
2023-01-22T19:58:34.341Z,8.73
2023-01-22T20:01:03.059Z,7.30
2023-01-22T20:03:31.501Z,9.00
2023-01-22T20:05:59.956Z,12.20
2023-01-22T20:08:29.840Z,10.83
2023-01-22T20:11:01.258Z,11.50
2023-01-22T20:13:29.780Z,11.20
2023-01-22T20:15:58.796Z,9.70
2023-01-22T20:18:28.058Z,8.60
2023-01-22T20:20:56.973Z,8.00
2023-01-22T20:23:25.838Z,8.03
2023-01-22T20:25:55.866Z,8.63
2023-01-22T20:28:24.378Z,8.43
2023-01-22T20:30:59.364Z,8.90
2023-01-22T20:33:27.977Z,7.53
2023-01-22T20:35:59.548Z,7.00
2023-01-22T20:38:28.550Z,6.87
2023-01-22T20:41:00.842Z,5.77
2023-01-22T20:43:29.517Z,7.67
2023-01-22T20:46:02.165Z,8.23
2023-01-22T20:48:31.524Z,13.13
2023-01-22T20:51:00.310Z,10.03
2023-01-22T20:53:29.636Z,6.80
2023-01-22T20:56:02.931Z,6.30
2023-01-22T20:58:31.664Z,7.37
2023-01-22T21:01:04.527Z,7.63
2023-01-22T21:03:33.264Z,7.57
2023-01-22T21:06:04.215Z,9.57
2023-01-22T21:08:32.820Z,12.70
2023-01-22T21:11:03.680Z,13.33
2023-01-22T21:13:32.076Z,13.07
2023-01-22T21:16:07.543Z,12.93
2023-01-22T21:18:35.999Z,11.43
2023-01-22T21:21:05.644Z,9.33
2023-01-22T21:23:34.035Z,8.67
2023-01-22T21:26:06.923Z,8.53
2023-01-22T21:28:35.737Z,7.77
2023-01-22T21:31:07.847Z,7.30
2023-01-22T21:33:36.273Z,7.43
2023-01-22T21:36:04.940Z,7.07
2023-01-22T21:38:33.663Z,6.00
2023-01-22T21:41:07.690Z,6.57
2023-01-22T21:43:54.096Z,7.90
2023-01-22T21:46:26.194Z,7.93
2023-01-22T21:48:58.258Z,12.90
2023-01-22T21:51:26.750Z,12.70
2023-01-22T21:53:55.195Z,10.43
2023-01-22T21:56:25.460Z,9.80
2023-01-22T21:58:53.883Z,12.23
2023-01-22T22:01:23.671Z,11.40
2023-01-22T22:03:52.102Z,12.27
2023-01-22T22:06:20.542Z,12.50
2023-01-22T22:08:48.944Z,12.87
2023-01-22T22:11:17.343Z,13.23
2023-01-22T22:13:47.119Z,13.93
2023-01-22T22:16:15.492Z,14.53
2023-01-22T22:18:44.022Z,14.63
2023-01-22T22:21:12.500Z,11.40
2023-01-22T22:23:41.067Z,11.00
2023-01-22T22:26:10.479Z,10.83
2023-01-22T22:28:38.974Z,12.83
2023-01-22T22:31:11.830Z,12.10
2023-01-22T22:33:40.729Z,12.67
2023-01-22T22:36:09.633Z,11.47
2023-01-22T22:38:38.262Z,11.07
2023-01-22T22:41:07.780Z,11.50
2023-01-22T22:43:36.780Z,11.83
2023-01-22T22:46:06.728Z,12.27
2023-01-22T22:48:36.875Z,11.90
2023-01-22T22:51:10.990Z,13.13
2023-01-22T22:53:39.463Z,13.13
2023-01-22T22:56:09.124Z,12.93
2023-01-22T22:58:37.937Z,13.60
2023-01-22T23:01:09.929Z,12.17
2023-01-22T23:03:39.748Z,9.30
2023-01-22T23:06:11.778Z,9.90
2023-01-22T23:08:40.599Z,7.80
2023-01-22T23:11:09.987Z,6.97
2023-01-22T23:13:39.166Z,6.57
2023-01-22T23:16:09.169Z,6.10
2023-01-22T23:18:37.942Z,5.50
2023-01-22T23:21:08.284Z,6.17
2023-01-22T23:23:37.280Z,5.60
2023-01-22T23:26:08.706Z,4.43
2023-01-22T23:28:37.147Z,4.93
2023-01-22T23:31:06.114Z,4.87
2023-01-22T23:33:34.641Z,5.67
2023-01-22T23:36:03.359Z,5.27
2023-01-22T23:38:33.237Z,5.40
2023-01-22T23:41:02.323Z,5.47
2023-01-22T23:43:30.726Z,4.77
2023-01-22T23:45:59.154Z,5.70
2023-01-22T23:48:27.617Z,5.50
2023-01-22T23:50:56.087Z,5.03
2023-01-22T23:53:24.542Z,5.00
2023-01-22T23:55:59.217Z,7.30
2023-01-22T23:58:28.354Z,4.57
